Time;durP1;ratioP1;P1;durP2;ratioP2;P2;SDS_P1;SDS_P2;PMS_P1;PMS_P2;Temp;Humidity;BMP_temperature;BMP_pressure;BME280_temperature;BME280_humidity;BME280_pressure;Samples;Min_cycle;Max_cycle;Signal;HPM_P1;HPM_P2
2023/04/26 00:00:00;;;;;;;;;;;;;;;8.55;100.00;98784.91;5054693;28;794;-60
2023/04/26 00:02:26;;;;;;;;;;;;;;;8.55;100.00;98789.66;5054676;28;791;-60
2023/04/26 00:04:57;;;;;;;;;;;;;;;8.47;100.00;98777.97;5054660;28;866;-59
2023/04/26 00:07:24;;;;;;;;;;;;;;;8.41;100.00;98779.59;5054853;28;1945;-59
2023/04/26 00:09:51;;;;;;;;;;;;;;;8.40;100.00;98778.00;5054783;28;1248;-60
2023/04/26 00:12:18;;;;;;;;;;;;;;;8.42;100.00;98775.66;5036685;28;859;-59
2023/04/26 00:14:44;;;;;;;;;;;;;;;8.41;100.00;98776.06;5036854;28;1236;-59
2023/04/26 00:17:11;;;;;;;;;;;;;;;8.33;100.00;98776.13;5054388;28;834;-60
2023/04/26 00:19:38;;;;;;;;;;;;;;;8.29;100.00;98771.84;5054670;28;810;-60
2023/04/26 00:22:05;;;;;;;;;;;;;;;8.31;100.00;98777.72;5054351;28;834;-60
2023/04/26 00:24:31;;;;;;;;;;;;;;;8.37;100.00;98779.59;5054203;28;885;-60
2023/04/26 00:26:59;;;;;;;;;;;;;;;8.43;100.00;98776.41;5054084;28;1979;-60
2023/04/26 00:29:26;;;;;;;;;;;;;;;8.53;100.00;98772.75;5054383;28;846;-60
2023/04/26 00:31:53;;;;;;;;;;;;;;;8.59;100.00;98771.09;5054169;28;822;-60
2023/04/26 00:34:20;;;;;;;;;;;;;;;8.56;100.00;98764.44;5054053;28;870;-60
2023/04/26 00:36:46;;;;;;;;;;;;;;;8.59;100.00;98765.59;5054116;28;880;-60
2023/04/26 00:39:13;;;;;;;;;;;;;;;8.57;100.00;98771.50;5053812;28;877;-60
2023/04/26 00:41:39;;;;;;;;;;;;;;;8.49;100.00;98764.56;5054155;28;858;-60
2023/04/26 00:44:06;;;;;;;;;;;;;;;8.41;100.00;98762.28;5053874;28;878;-60
2023/04/26 00:46:32;;;;;;;;;;;;;;;8.31;100.00;98759.22;5053848;28;1953;-60
2023/04/26 00:48:59;;;;;;;;;;;;;;;8.19;100.00;98759.75;5053772;28;869;-60
2023/04/26 00:51:26;;;;;;;;;;;;;;;8.04;100.00;98755.63;5053787;28;803;-60
2023/04/26 00:53:53;;;;;;;;;;;;;;;7.95;100.00;98754.16;5053560;28;860;-60
2023/04/26 00:56:20;;;;;;;;;;;;;;;8.02;100.00;98753.28;5053664;28;839;-60
2023/04/26 00:58:47;;;;;;;;;;;;;;;8.18;100.00;98755.47;5035837;28;1320;-60
2023/04/26 01:01:14;;;;;;;;;;;;;;;8.22;100.00;98750.69;5053558;28;818;-60
2023/04/26 01:03:43;;;;;;;;;;;;;;;8.28;100.00;98748.25;5053545;28;890;-60
2023/04/26 01:06:09;;;;;;;;;;;;;;;8.34;100.00;98750.16;5053622;28;865;-60
2023/04/26 01:08:36;;;;;;;;;;;;;;;8.43;100.00;98752.44;5053496;28;1882;-60
2023/04/26 01:11:03;;;;;;;;;;;;;;;8.51;100.00;98750.34;5053186;28;1409;-60
2023/04/26 01:13:31;;;;;;;;;;;;;;;8.64;100.00;98745.06;5053419;28;791;-60
2023/04/26 01:15:58;;;;;;;;;;;;;;;8.75;100.00;98754.75;5053267;28;1008;-60
2023/04/26 01:18:25;;;;;;;;;;;;;;;8.85;100.00;98755.78;5053262;28;893;-60
2023/04/26 01:20:52;;;;;;;;;;;;;;;8.91;100.00;98751.34;5053269;28;819;-60
2023/04/26 01:23:18;;;;;;;;;;;;;;;8.99;100.00;98749.28;5053066;28;831;-60
2023/04/26 01:25:45;;;;;;;;;;;;;;;9.06;100.00;98751.16;5053200;28;811;-60
2023/04/26 01:28:12;;;;;;;;;;;;;;;9.10;100.00;98755.41;5052999;28;1973;-60
2023/04/26 01:30:38;;;;;;;;;;;;;;;9.15;100.00;98754.94;5053084;28;790;-60
2023/04/26 01:33:05;;;;;;;;;;;;;;;9.18;100.00;98750.56;5052984;28;846;-60
2023/04/26 01:35:32;;;;;;;;;;;;;;;9.21;100.00;98746.97;5052930;28;857;-60
2023/04/26 01:37:58;;;;;;;;;;;;;;;9.24;100.00;98748.91;5052900;28;811;-60
2023/04/26 01:40:25;;;;;;;;;;;;;;;9.26;100.00;98748.44;5052869;28;823;-60
2023/04/26 01:42:52;;;;;;;;;;;;;;;9.28;100.00;98749.63;5052712;28;902;-60
2023/04/26 01:45:18;;;;;;;;;;;;;;;9.31;100.00;98739.72;5052767;28;818;-60
2023/04/26 01:47:45;;;;;;;;;;;;;;;9.34;100.00;98739.63;5052674;28;1890;-60
2023/04/26 01:50:12;;;;;;;;;;;;;;;9.35;100.00;98734.94;5051927;28;880;-60
2023/04/26 01:52:38;;;;;;;;;;;;;;;9.36;100.00;98730.97;5052546;28;839;-60
2023/04/26 01:55:06;;;;;;;;;;;;;;;9.39;100.00;98728.16;5052549;28;894;-60
2023/04/26 01:57:32;;;;;;;;;;;;;;;9.43;100.00;98717.06;5052507;28;834;-60
2023/04/26 02:00:01;;;;;;;;;;;;;;;9.47;100.00;98714.22;5052484;28;806;-60
2023/04/26 02:02:27;;;;;;;;;;;;;;;9.53;100.00;98709.78;5052404;28;815;-60
2023/04/26 02:04:54;;;;;;;;;;;;;;;9.55;100.00;98710.91;5052399;28;901;-60
2023/04/26 02:07:21;;;;;;;;;;;;;;;9.51;100.00;98710.19;5052222;28;1953;-60
2023/04/26 02:09:46;;;;;;;;;;;;;;;9.47;100.00;98697.66;5052445;28;1339;-60
2023/04/26 02:12:13;;;;;;;;;;;;;;;9.42;100.00;98704.47;5052500;28;843;-60
2023/04/26 02:14:40;;;;;;;;;;;;;;;9.38;100.00;98707.25;5052201;28;885;-60
2023/04/26 02:17:07;;;;;;;;;;;;;;;9.36;100.00;98706.13;5052198;28;870;-60
2023/04/26 02:19:34;;;;;;;;;;;;;;;9.33;100.00;98712.50;5052082;28;882;-60
2023/04/26 02:22:01;;;;;;;;;;;;;;;9.33;100.00;98715.25;5051991;28;877;-60
2023/04/26 02:24:27;;;;;;;;;;;;;;;9.32;100.00;98706.19;5051944;28;873;-60
2023/04/26 02:26:54;;;;;;;;;;;;;;;9.34;100.00;98703.78;5051958;28;1972;-60
2023/04/26 02:29:20;;;;;;;;;;;;;;;9.31;100.00;98701.88;5051958;28;803;-60
2023/04/26 02:31:47;;;;;;;;;;;;;;;9.32;100.00;98700.69;5051893;28;941;-60
2023/04/26 02:34:13;;;;;;;;;;;;;;;9.34;100.00;98701.03;5051828;28;913;-60
2023/04/26 02:36:40;;;;;;;;;;;;;;;9.32;100.00;98691.63;5051828;28;830;-60
2023/04/26 02:39:07;;;;;;;;;;;;;;;9.25;100.00;98691.75;5051785;28;889;-60
2023/04/26 02:41:34;;;;;;;;;;;;;;;9.16;100.00;98690.31;5051753;28;827;-60
2023/04/26 02:44:01;;;;;;;;;;;;;;;9.08;100.00;98690.88;5051987;28;853;-60
2023/04/26 02:46:28;;;;;;;;;;;;;;;8.99;100.00;98699.66;5051570;28;1886;-60
2023/04/26 02:48:54;;;;;;;;;;;;;;;8.91;100.00;98700.97;5051628;28;858;-60
2023/04/26 02:51:21;;;;;;;;;;;;;;;8.80;100.00;98695.63;5051626;28;865;-60
2023/04/26 02:53:48;;;;;;;;;;;;;;;8.78;100.00;98698.03;5051487;28;905;-60
2023/04/26 02:56:15;;;;;;;;;;;;;;;8.81;100.00;98697.19;5051572;28;894;-60
2023/04/26 02:58:41;;;;;;;;;;;;;;;8.76;100.00;98701.19;5033594;28;1287;-60
2023/04/26 03:01:09;;;;;;;;;;;;;;;8.74;100.00;98703.59;5051533;28;893;-60
2023/04/26 03:03:36;;;;;;;;;;;;;;;8.77;100.00;98702.00;5051560;28;838;-60
2023/04/26 03:06:03;;;;;;;;;;;;;;;8.86;100.00;98701.47;5051403;28;892;-60
2023/04/26 03:08:29;;;;;;;;;;;;;;;8.92;100.00;98699.78;5051415;28;1951;-60
2023/04/26 03:10:56;;;;;;;;;;;;;;;8.98;100.00;98695.34;5051226;28;1419;-59
2023/04/26 03:13:23;;;;;;;;;;;;;;;9.00;100.00;98706.72;5051444;28;815;-60
2023/04/26 03:15:51;;;;;;;;;;;;;;;8.99;100.00;98710.69;5051483;28;819;-60
2023/04/26 03:18:18;;;;;;;;;;;;;;;8.98;100.00;98714.63;5051563;28;814;-60
2023/04/26 03:20:47;;;;;;;;;;;;;;;9.00;100.00;98715.00;5051533;28;889;-60
2023/04/26 03:23:14;;;;;;;;;;;;;;;9.07;100.00;98720.41;5051186;28;814;-60
2023/04/26 03:25:40;;;;;;;;;;;;;;;9.13;100.00;98715.19;5051224;28;814;-60
2023/04/26 03:28:06;;;;;;;;;;;;;;;9.18;100.00;98709.97;5051208;28;1917;-60
2023/04/26 03:30:33;;;;;;;;;;;;;;;9.24;100.00;98720.53;5033287;28;1200;-60
2023/04/26 03:33:01;;;;;;;;;;;;;;;9.29;100.00;98717.31;5051098;28;1089;-59
2023/04/26 03:35:27;;;;;;;;;;;;;;;9.32;100.00;98724.72;5051439;28;799;-60
2023/04/26 03:37:54;;;;;;;;;;;;;;;9.35;100.00;98713.63;5051157;28;839;-60
2023/04/26 03:40:20;;;;;;;;;;;;;;;9.39;100.00;98725.38;5051099;28;858;-59
2023/04/26 03:42:47;;;;;;;;;;;;;;;9.43;100.00;98719.81;5051140;28;799;-59
2023/04/26 03:45:13;;;;;;;;;;;;;;;9.49;100.00;98726.38;5051050;28;861;-60
2023/04/26 03:47:40;;;;;;;;;;;;;;;9.55;100.00;98724.69;5049724;28;1976;-59
2023/04/26 03:50:07;;;;;;;;;;;;;;;9.60;100.00;98734.47;5051016;28;854;-59
2023/04/26 03:52:33;;;;;;;;;;;;;;;9.61;100.00;98727.75;5050888;28;913;-60
2023/04/26 03:55:01;;;;;;;;;;;;;;;9.61;100.00;98739.56;5051108;28;815;-59
2023/04/26 03:57:27;;;;;;;;;;;;;;;9.61;100.00;98736.81;5051024;28;898;-60
2023/04/26 03:59:54;;;;;;;;;;;;;;;9.59;100.00;98739.22;5050874;28;823;-59
2023/04/26 04:02:20;;;;;;;;;;;;;;;9.56;100.00;98742.06;5050964;28;835;-59
2023/04/26 04:04:47;;;;;;;;;;;;;;;9.52;100.00;98746.84;5050854;28;874;-59
2023/04/26 04:07:13;;;;;;;;;;;;;;;9.49;100.00;98742.94;5050814;28;1910;-59
2023/04/26 04:09:40;;;;;;;;;;;;;;;9.48;100.00;98744.16;5051130;28;957;-59
2023/04/26 04:12:08;;;;;;;;;;;;;;;9.51;100.00;98748.03;5050636;28;1435;-59
2023/04/26 04:14:34;;;;;;;;;;;;;;;9.55;100.00;98735.72;5053122;28;869;-59
2023/04/26 04:17:01;;;;;;;;;;;;;;;9.60;100.00;98739.97;5054482;28;870;-59
2023/04/26 04:19:28;;;;;;;;;;;;;;;9.67;100.00;98744.63;5054349;28;886;-59
2023/04/26 04:21:55;;;;;;;;;;;;;;;9.73;100.00;98749.22;5054494;28;850;-60
2023/04/26 04:24:23;;;;;;;;;;;;;;;9.82;100.00;98749.44;5054233;28;886;-59
2023/04/26 04:26:50;;;;;;;;;;;;;;;9.89;100.00;98747.75;5054241;28;1910;-59
2023/04/26 04:29:15;;;;;;;;;;;;;;;9.96;100.00;98750.38;5054214;28;858;-59
2023/04/26 04:31:42;;;;;;;;;;;;;;;9.98;100.00;98751.50;5054235;28;843;-58
2023/04/26 04:34:09;;;;;;;;;;;;;;;10.03;100.00;98750.25;5054193;28;794;-58
2023/04/26 04:36:37;;;;;;;;;;;;;;;10.04;100.00;98748.25;5054091;28;845;-58
2023/04/26 04:39:11;;;;;;;;;;;;;;;10.02;100.00;98752.19;5054003;28;897;-58
2023/04/26 04:41:39;;;;;;;;;;;;;;;10.06;100.00;98751.38;5054088;28;823;-58
2023/04/26 04:44:06;;;;;;;;;;;;;;;10.14;100.00;98755.56;5052698;28;1255;-58
2023/04/26 04:46:33;;;;;;;;;;;;;;;10.17;100.00;98765.75;5053796;28;1886;-58
2023/04/26 04:49:00;;;;;;;;;;;;;;;10.19;100.00;98764.09;5053912;28;909;-58
2023/04/26 04:51:27;;;;;;;;;;;;;;;10.26;100.00;98762.41;5053694;28;885;-58
2023/04/26 04:53:54;;;;;;;;;;;;;;;10.23;100.00;98759.28;5053770;28;940;-58
2023/04/26 04:56:21;;;;;;;;;;;;;;;10.37;100.00;98768.50;5053706;28;877;-58
2023/04/26 04:58:48;;;;;;;;;;;;;;;10.61;100.00;98769.97;5053657;28;890;-58
2023/04/26 05:01:15;;;;;;;;;;;;;;;10.80;100.00;98762.84;5053620;28;834;-58
2023/04/26 05:03:42;;;;;;;;;;;;;;;10.94;100.00;98761.75;5053622;28;850;-58
2023/04/26 05:06:10;;;;;;;;;;;;;;;11.00;100.00;98754.50;5053723;28;818;-58
2023/04/26 05:08:37;;;;;;;;;;;;;;;11.07;100.00;98758.31;5053524;28;1890;-58
2023/04/26 05:11:04;;;;;;;;;;;;;;;11.06;100.00;98762.28;5053280;28;1233;-58
2023/04/26 05:13:31;;;;;;;;;;;;;;;11.04;100.00;98760.72;5053495;28;811;-58
2023/04/26 05:15:58;;;;;;;;;;;;;;;11.09;100.00;98758.66;5053368;28;814;-58
2023/04/26 05:18:25;;;;;;;;;;;;;;;11.15;100.00;98759.69;5053464;28;811;-58
2023/04/26 05:20:52;;;;;;;;;;;;;;;11.16;100.00;98761.25;5053159;28;823;-58
2023/04/26 05:23:19;;;;;;;;;;;;;;;11.12;100.00;98758.56;5053257;28;862;-58
2023/04/26 05:25:46;;;;;;;;;;;;;;;11.04;100.00;98757.19;5052133;28;787;-58
2023/04/26 05:28:13;;;;;;;;;;;;;;;10.96;100.00;98755.78;5052933;28;1910;-58
2023/04/26 05:30:41;;;;;;;;;;;;;;;10.89;100.00;98755.97;5053098;28;799;-58
2023/04/26 05:33:08;;;;;;;;;;;;;;;10.85;100.00;98761.56;5035123;28;847;-58
2023/04/26 05:35:35;;;;;;;;;;;;;;;10.87;100.00;98767.44;5052996;28;860;-58
2023/04/26 05:38:02;;;;;;;;;;;;;;;10.89;100.00;98758.72;5052923;28;775;-58
2023/04/26 05:40:30;;;;;;;;;;;;;;;10.85;100.00;98769.09;5052896;28;803;-58
2023/04/26 05:42:57;;;;;;;;;;;;;;;10.83;100.00;98762.00;5052813;28;870;-58
2023/04/26 05:45:24;;;;;;;;;;;;;;;10.83;100.00;98778.56;5052755;28;811;-58
2023/04/26 05:47:51;;;;;;;;;;;;;;;10.87;100.00;98777.72;5052714;28;1886;-58
2023/04/26 05:50:19;;;;;;;;;;;;;;;10.87;100.00;98774.97;5052824;28;845;-59
2023/04/26 05:52:46;;;;;;;;;;;;;;;10.76;100.00;98780.72;5052661;28;827;-58
2023/04/26 05:55:13;;;;;;;;;;;;;;;10.70;100.00;98785.22;5052542;28;878;-58
2023/04/26 05:57:40;;;;;;;;;;;;;;;10.63;100.00;98786.91;5052529;28;885;-58
2023/04/26 06:00:10;;;;;;;;;;;;;;;10.61;100.00;98783.81;5052761;28;877;-58
2023/04/26 06:02:37;;;;;;;;;;;;;;;10.65;100.00;98789.25;5052417;28;842;-58
2023/04/26 06:05:05;;;;;;;;;;;;;;;10.68;100.00;98791.16;5052358;28;791;-58
2023/04/26 06:07:32;;;;;;;;;;;;;;;10.74;100.00;98792.22;5052271;28;1957;-58
2023/04/26 06:10:00;;;;;;;;;;;;;;;10.78;100.00;98795.69;5052468;28;1183;-59
2023/04/26 06:12:27;;;;;;;;;;;;;;;10.85;100.00;98796.72;5034468;28;1434;-58
2023/04/26 06:14:54;;;;;;;;;;;;;;;10.88;100.00;98787.56;5052618;28;974;-58
2023/04/26 06:17:21;;;;;;;;;;;;;;;10.96;100.00;98792.50;5053140;28;775;-58
2023/04/26 06:19:48;;;;;;;;;;;;;;;11.05;100.00;98791.91;5052414;28;838;-58
2023/04/26 06:22:14;;;;;;;;;;;;;;;11.10;100.00;98802.47;5052341;28;807;-58
2023/04/26 06:24:41;;;;;;;;;;;;;;;11.09;100.00;98795.38;5051986;28;810;-58
2023/04/26 06:27:08;;;;;;;;;;;;;;;11.06;100.00;98795.47;5052497;28;1914;-58
2023/04/26 06:29:36;;;;;;;;;;;;;;;10.95;100.00;98804.78;5051923;28;913;-58
2023/04/26 06:32:02;;;;;;;;;;;;;;;10.80;100.00;98806.31;5052225;28;775;-58
2023/04/26 06:34:30;;;;;;;;;;;;;;;10.68;100.00;98788.38;5051953;28;859;-59
2023/04/26 06:36:57;;;;;;;;;;;;;;;10.62;100.00;98793.66;5051595;28;1286;-58
2023/04/26 06:39:24;;;;;;;;;;;;;;;10.71;100.00;98798.59;5052219;28;787;-58
2023/04/26 06:41:51;;;;;;;;;;;;;;;10.65;100.00;98803.06;5051816;28;826;-58
2023/04/26 06:44:18;;;;;;;;;;;;;;;10.72;100.00;98804.91;5051765;28;830;-58
2023/04/26 06:46:45;;;;;;;;;;;;;;;10.77;100.00;98799.63;5052153;28;1943;-58
2023/04/26 06:49:13;;;;;;;;;;;;;;;10.89;100.00;98805.72;5052071;28;823;-58
2023/04/26 06:51:40;;;;;;;;;;;;;;;11.14;100.00;98807.94;5051900;28;827;-58
2023/04/26 06:54:07;;;;;;;;;;;;;;;11.58;100.00;98802.91;5052177;28;866;-58
2023/04/26 06:56:35;;;;;;;;;;;;;;;11.90;100.00;98813.19;5052158;28;866;-58
2023/04/26 06:59:03;;;;;;;;;;;;;;;12.05;100.00;98810.81;5051740;28;889;-58
2023/04/26 07:01:32;;;;;;;;;;;;;;;12.09;100.00;98810.75;5051559;28;815;-58
2023/04/26 07:04:02;;;;;;;;;;;;;;;12.22;100.00;98809.56;5051506;28;787;-58
2023/04/26 07:06:33;;;;;;;;;;;;;;;12.35;100.00;98803.28;5051361;28;1945;-58
2023/04/26 07:09:01;;;;;;;;;;;;;;;12.64;100.00;98797.72;5051552;28;945;-58
2023/04/26 07:11:28;;;;;;;;;;;;;;;12.96;100.00;98801.53;5039710;28;1383;-58
2023/04/26 07:13:56;;;;;;;;;;;;;;;13.57;100.00;98803.19;5051411;28;826;-58
2023/04/26 07:16:23;;;;;;;;;;;;;;;14.43;100.00;98802.97;5051316;28;858;-58
2023/04/26 07:18:51;;;;;;;;;;;;;;;14.55;100.00;98795.00;5051253;28;837;-58
2023/04/26 07:21:19;;;;;;;;;;;;;;;14.84;100.00;98801.06;5051308;28;889;-58
2023/04/26 07:23:46;;;;;;;;;;;;;;;14.97;100.00;98803.00;5051319;28;877;-57
2023/04/26 07:26:13;;;;;;;;;;;;;;;15.46;100.00;98791.09;5051221;28;827;-57
2023/04/26 07:28:44;;;;;;;;;;;;;;;15.91;100.00;98786.88;5051122;28;1985;-57
2023/04/26 07:31:11;;;;;;;;;;;;;;;16.92;100.00;98786.75;5051207;28;866;-57
2023/04/26 07:33:38;;;;;;;;;;;;;;;17.62;100.00;98794.16;5051222;28;834;-57
2023/04/26 07:36:04;;;;;;;;;;;;;;;18.77;100.00;98786.19;5033281;28;1331;-57
2023/04/26 07:38:31;;;;;;;;;;;;;;;20.45;100.00;98789.00;5051126;28;795;-57
2023/04/26 07:40:59;;;;;;;;;;;;;;;20.59;100.00;98785.34;5051113;28;866;-57
2023/04/26 07:43:27;;;;;;;;;;;;;;;20.74;100.00;98795.66;5051203;28;838;-56
2023/04/26 07:45:53;;;;;;;;;;;;;;;21.19;100.00;98791.19;5051375;28;870;-57
2023/04/26 07:48:20;;;;;;;;;;;;;;;21.45;100.00;98786.78;5051235;28;1895;-57
2023/04/26 07:50:47;;;;;;;;;;;;;;;22.02;100.00;98789.34;5055021;28;810;-57
2023/04/26 07:53:14;;;;;;;;;;;;;;;21.78;100.00;98780.53;5054884;28;878;-57
2023/04/26 07:55:41;;;;;;;;;;;;;;;21.26;100.00;98792.00;5054942;28;842;-57
2023/04/26 07:58:11;;;;;;;;;;;;;;;21.29;100.00;98785.38;5054800;28;802;-58
2023/04/26 08:00:38;;;;;;;;;;;;;;;20.47;100.00;98791.31;5054898;28;1061;-58
2023/04/26 08:03:05;;;;;;;;;;;;;;;19.31;100.00;98796.47;5055161;28;866;-59
2023/04/26 08:05:32;;;;;;;;;;;;;;;18.31;100.00;98792.28;5054755;28;819;-59
2023/04/26 08:08:02;;;;;;;;;;;;;;;18.02;100.00;98797.81;5054820;28;1958;-59
2023/04/26 08:10:29;;;;;;;;;;;;;;;18.00;100.00;98791.91;5055068;28;1051;-59
2023/04/26 08:12:56;;;;;;;;;;;;;;;17.86;100.00;98793.41;5054487;28;1271;-59
2023/04/26 08:15:26;;;;;;;;;;;;;;;17.78;100.00;98789.41;5054825;28;815;-59
2023/04/26 08:17:52;;;;;;;;;;;;;;;17.78;100.00;98795.00;5054350;28;823;-59
2023/04/26 08:20:19;;;;;;;;;;;;;;;17.83;100.00;98792.34;5054436;28;898;-59
2023/04/26 08:22:46;;;;;;;;;;;;;;;17.94;100.00;98792.59;5054347;28;795;-59
2023/04/26 08:25:12;;;;;;;;;;;;;;;18.57;100.00;98792.47;5054384;28;877;-59
2023/04/26 08:27:40;;;;;;;;;;;;;;;19.07;100.00;98789.00;5054183;28;1936;-59
2023/04/26 08:30:06;;;;;;;;;;;;;;;19.51;100.00;98782.50;5054318;28;814;-59
2023/04/26 08:32:35;;;;;;;;;;;;;;;19.68;100.00;98784.78;5054305;28;846;-59
2023/04/26 08:35:02;;;;;;;;;;;;;;;19.82;100.00;98780.38;5054094;28;822;-59
2023/04/26 08:37:28;;;;;;;;;;;;;;;20.18;100.00;98782.63;5054153;28;862;-60
2023/04/26 08:39:56;;;;;;;;;;;;;;;20.21;100.00;98785.69;5054066;28;854;-59
2023/04/26 08:42:25;;;;;;;;;;;;;;;20.06;100.00;98780.94;5053986;28;833;-59
2023/04/26 08:44:52;;;;;;;;;;;;;;;20.43;100.00;98783.09;5054027;28;806;-59
2023/04/26 08:47:23;;;;;;;;;;;;;;;20.63;100.00;98778.72;5053860;28;1939;-59
2023/04/26 08:50:02;;;;;;;;;;;;;;;20.38;100.00;98778.22;5053853;28;870;-59
2023/04/26 08:52:29;;;;;;;;;;;;;;;19.98;100.00;98783.38;5053914;28;893;-59
2023/04/26 08:54:57;;;;;;;;;;;;;;;20.13;100.00;98774.13;5053806;28;814;-59
2023/04/26 08:57:26;;;;;;;;;;;;;;;20.03;100.00;98783.94;5053758;28;897;-59
2023/04/26 08:59:56;;;;;;;;;;;;;;;20.00;100.00;98785.72;5053578;28;815;-59
2023/04/26 09:02:23;;;;;;;;;;;;;;;20.05;100.00;98785.00;5053652;28;854;-59
2023/04/26 09:04:50;;;;;;;;;;;;;;;20.21;100.00;98785.69;5053630;28;878;-59
2023/04/26 09:07:20;;;;;;;;;;;;;;;20.48;100.00;98788.00;5053656;28;1882;-59
2023/04/26 09:09:51;;;;;;;;;;;;;;;20.48;100.00;98781.63;5035789;28;1319;-59
2023/04/26 09:12:21;;;;;;;;;;;;;;;20.54;100.00;98779.63;5053248;28;1254;-59
2023/04/26 09:14:47;;;;;;;;;;;;;;;20.04;100.00;98788.31;5054063;28;771;-59
2023/04/26 09:17:30;;;;;;;;;;;;;;;19.84;100.00;98780.66;5053229;28;846;-59
2023/04/26 09:19:58;;;;;;;;;;;;;;;19.83;100.00;98779.91;5053413;28;822;-59
2023/04/26 09:22:28;;;;;;;;;;;;;;;20.03;100.00;98779.09;5053407;28;898;-59
2023/04/26 09:24:54;;;;;;;;;;;;;;;20.26;100.00;98782.94;5053228;28;889;-59
2023/04/26 09:27:21;;;;;;;;;;;;;;;20.69;100.00;98779.53;5053096;28;2352;-59
2023/04/26 09:29:58;;;;;;;;;;;;;;;20.89;100.00;98771.06;5053112;28;818;-59
2023/04/26 09:32:25;;;;;;;;;;;;;;;21.49;100.00;98781.69;5053143;28;913;-59
2023/04/26 09:34:52;;;;;;;;;;;;;;;21.81;100.00;98779.56;5052989;28;823;-59
2023/04/26 09:37:19;;;;;;;;;;;;;;;22.00;100.00;98772.22;5052889;28;962;-59
2023/04/26 10:08:36;;;;;;;;;;;;;;;18.83;100.00;98763.94;6090505;22;1704;-61
2023/04/26 10:11:12;;;;;;;;;;;;;;;18.77;100.00;98761.00;5032930;28;782;-60
2023/04/26 10:13:38;;;;;;;;;;;;;;;18.66;100.00;98760.81;5032344;28;936;-59
2023/04/26 10:16:05;;;;;;;;;;;;;;;18.39;100.00;98759.09;5032356;28;902;-59
2023/04/26 10:18:32;;;;;;;;;;;;;;;18.04;100.00;98758.97;5032310;28;880;-58
2023/04/26 10:21:04;;;;;;;;;;;;;;;17.77;100.00;98760.69;5032390;28;897;-58
2023/04/26 10:23:32;;;;;;;;;;;;;;;17.52;100.00;98756.38;5032148;28;830;-58
2023/04/26 10:25:59;;;;;;;;;;;;;;;17.41;100.00;98758.91;5032125;28;917;-58
2023/04/26 10:28:44;;;;;;;;;;;;;;;17.15;100.00;98762.13;5014357;28;1914;-58
2023/04/26 10:31:11;;;;;;;;;;;;;;;16.89;100.00;98761.78;5032053;28;901;-59
2023/04/26 10:33:38;;;;;;;;;;;;;;;16.72;100.00;98764.16;5032076;28;860;-60
2023/04/26 10:36:12;;;;;;;;;;;;;;;16.74;100.00;98761.66;5032060;28;877;-60
2023/04/26 10:38:40;;;;;;;;;;;;;;;16.79;100.00;98763.84;5031946;28;815;-60
2023/04/26 10:41:25;;;;;;;;;;;;;;;16.98;100.00;98767.34;5032089;28;851;-60
2023/04/26 10:43:51;;;;;;;;;;;;;;;17.01;100.00;98765.63;5031955;28;822;-60
2023/04/26 10:46:36;;;;;;;;;;;;;;;17.05;100.00;98757.88;5031834;28;826;-60
2023/04/26 10:49:13;;;;;;;;;;;;;;;17.26;100.00;98762.41;5032095;28;880;-60
2023/04/26 10:51:40;;;;;;;;;;;;;;;17.45;100.00;98762.28;5031972;28;850;-60
2023/04/26 10:54:07;;;;;;;;;;;;;;;17.54;100.00;98763.03;5031901;28;869;-60
2023/04/26 10:56:41;;;;;;;;;;;;;;;17.09;100.00;98766.81;5031962;28;901;-59
2023/04/26 11:11:18;;;;;;;;;;;;;;;18.36;100.00;98771.25;5047810;28;1233;-60
2023/04/26 11:13:45;;;;;;;;;;;;;;;18.54;100.00;98768.28;5051490;28;802;-59
2023/04/26 11:16:16;;;;;;;;;;;;;;;18.07;100.00;98766.38;5051467;28;882;-59
2023/04/26 11:18:44;;;;;;;;;;;;;;;17.79;100.00;98763.00;5051610;28;885;-59
2023/04/26 11:21:13;;;;;;;;;;;;;;;17.97;100.00;98764.94;5051542;28;954;-59
2023/04/26 11:23:40;;;;;;;;;;;;;;;17.79;100.00;98765.78;5052279;28;881;-57
2023/04/26 11:26:08;;;;;;;;;;;;;;;17.49;100.00;98760.88;5055481;28;838;-57
2023/04/26 11:28:36;;;;;;;;;;;;;;;17.62;100.00;98755.03;5055279;28;1902;-57
2023/04/26 11:31:03;;;;;;;;;;;;;;;17.87;100.00;98748.22;5055397;28;790;-57
2023/04/26 11:33:30;;;;;;;;;;;;;;;18.44;100.00;98763.25;5055377;28;865;-58
2023/04/26 11:35:57;;;;;;;;;;;;;;;19.03;100.00;98745.66;5055198;28;945;-58
2023/04/26 11:38:24;;;;;;;;;;;;;;;19.07;100.00;98746.22;5055235;28;874;-58
2023/04/26 11:41:02;;;;;;;;;;;;;;;19.10;100.00;98754.44;5055177;28;791;-57
2023/04/26 11:43:35;;;;;;;;;;;;;;;19.31;100.00;98749.66;5055245;28;842;-57
2023/04/26 11:46:02;;;;;;;;;;;;;;;19.66;100.00;98760.03;5055063;28;882;-58
2023/04/26 11:48:30;;;;;;;;;;;;;;;20.09;100.00;98742.72;5055011;28;1940;-57
2023/04/26 11:51:00;;;;;;;;;;;;;;;21.44;100.00;98745.88;5055091;28;822;-57
2023/04/26 11:53:37;;;;;;;;;;;;;;;22.30;100.00;98746.47;5054870;28;906;-58
2023/04/26 11:56:04;;;;;;;;;;;;;;;22.28;100.00;98746.22;5055215;28;803;-58
2023/04/26 11:58:31;;;;;;;;;;;;;;;21.97;100.00;98744.31;5053685;28;906;-57
2023/04/26 12:01:01;;;;;;;;;;;;;;;21.72;100.00;98746.78;5055134;28;853;-57
2023/04/26 12:03:33;;;;;;;;;;;;;;;22.07;100.00;98740.00;5036953;28;1480;-58
2023/04/26 12:06:00;;;;;;;;;;;;;;;22.18;100.00;98750.50;5055009;28;862;-57
2023/04/26 12:08:27;;;;;;;;;;;;;;;21.89;100.00;98746.06;5054784;28;1882;-57
2023/04/26 12:10:53;;;;;;;;;;;;;;;21.24;100.00;98752.38;5054800;28;1515;-58
2023/04/26 12:13:20;;;;;;;;;;;;;;;20.62;100.00;98741.47;5054539;28;897;-57
2023/04/26 12:15:49;;;;;;;;;;;;;;;20.73;100.00;98740.78;5054562;28;842;-57
2023/04/26 12:18:16;;;;;;;;;;;;;;;20.26;100.00;98740.84;5054480;28;908;-57
2023/04/26 12:20:45;;;;;;;;;;;;;;;19.96;100.00;98748.69;5054715;28;818;-57
2023/04/26 12:23:16;;;;;;;;;;;;;;;19.67;100.00;98746.78;5054382;28;937;-57
2023/04/26 12:25:59;;;;;;;;;;;;;;;19.25;100.00;98745.22;5054308;28;966;-57
2023/04/26 12:28:26;;;;;;;;;;;;;;;19.04;100.00;98742.38;5054280;28;1971;-57
2023/04/26 12:30:53;;;;;;;;;;;;;;;18.62;100.00;98740.66;5054352;28;877;-57
2023/04/26 12:33:21;;;;;;;;;;;;;;;18.05;100.00;98736.13;5054493;28;902;-57
2023/04/26 12:35:49;;;;;;;;;;;;;;;17.62;100.00;98729.91;5053368;28;913;-57
2023/04/26 12:38:15;;;;;;;;;;;;;;;17.34;100.00;98740.47;5054177;28;838;-57
2023/04/26 12:40:42;;;;;;;;;;;;;;;17.02;100.00;98731.66;5054133;28;901;-57
2023/04/26 12:43:09;;;;;;;;;;;;;;;16.81;100.00;98733.44;5054103;28;858;-57
2023/04/26 12:45:36;;;;;;;;;;;;;;;16.67;100.00;98739.69;5054197;28;1030;-57
2023/04/26 12:48:04;;;;;;;;;;;;;;;16.47;100.00;98738.19;5053965;28;1890;-58
2023/04/26 12:50:31;;;;;;;;;;;;;;;16.24;100.00;98736.84;5053899;28;933;-58
2023/04/26 12:52:57;;;;;;;;;;;;;;;15.96;100.00;98744.47;5054158;28;810;-58
2023/04/26 12:55:24;;;;;;;;;;;;;;;15.83;100.00;98722.34;5053777;28;925;-58
2023/04/26 12:57:51;;;;;;;;;;;;;;;15.69;100.00;98723.69;5053601;28;997;-58
2023/04/26 13:00:18;;;;;;;;;;;;;;;15.59;100.00;98721.34;5053650;28;902;-58
2023/04/26 13:02:45;;;;;;;;;;;;;;;15.47;100.00;98726.59;5053602;28;898;-59
2023/04/26 13:05:11;;;;;;;;;;;;;;;15.43;100.00;98723.19;5053570;28;834;-58
2023/04/26 13:07:39;;;;;;;;;;;;;;;15.39;100.00;98714.22;5053646;28;1956;-58
2023/04/26 13:10:07;;;;;;;;;;;;;;;15.35;100.00;98715.59;5053463;28;937;-59
2023/04/26 13:12:33;;;;;;;;;;;;;;;15.36;100.00;98717.13;5053155;28;1299;-58
2023/04/26 13:15:00;;;;;;;;;;;;;;;15.38;100.00;98726.56;5053458;28;893;-59
2023/04/26 13:17:27;;;;;;;;;;;;;;;15.47;100.00;98723.06;5053399;28;873;-58
2023/04/26 13:19:54;;;;;;;;;;;;;;;15.47;100.00;98718.25;5053444;28;854;-58
2023/04/26 13:22:20;;;;;;;;;;;;;;;15.52;100.00;98716.88;5053264;28;1084;-59
2023/04/26 13:24:47;;;;;;;;;;;;;;;15.66;100.00;98718.25;5053196;28;889;-58
2023/04/26 13:27:14;;;;;;;;;;;;;;;15.76;100.00;98719.06;5053117;28;1993;-59
2023/04/26 13:29:41;;;;;;;;;;;;;;;15.95;100.00;98728.19;5053489;28;865;-58
2023/04/26 13:32:07;;;;;;;;;;;;;;;15.95;100.00;98731.75;5053036;28;866;-58
2023/04/26 13:34:34;;;;;;;;;;;;;;;15.85;100.00;98733.00;5053133;28;830;-58
2023/04/26 13:37:02;;;;;;;;;;;;;;;15.62;100.00;98728.78;5052876;28;886;-59
2023/04/26 13:39:29;;;;;;;;;;;;;;;15.42;100.00;98729.22;5052921;28;866;-58